76-я Ершовая

Карта отелей и гостиниц, располагающихся рядом с аэропортом 76-я Ершовая :

76-я Ершовая Ханты-Мансийский автономный округ - Югра 61° 15' 5.1588" N, 77° 44' 4.0812" E
76-я Ершовая Ханты-Мансийский автономный округ - Югра 61° 15' 5.1588" N, 77° 44' 4.0812" E
Код аэродрома ИКАО
HDV8
Код аэродрома RU
ХДЖ8
Координаты
N61.25143° E077.73447°
Превышение над уровнем моря
57
Основная полоса
Курс магнитный
Длина основной ВПП
30
Ширина основной ВПП
30
Покрытие основной ВПП
Твёрдое (бетон)
Освещение ВПП
Нет
Тип: 
Вертодром
Класс аэродрома: 
Принадлежность: 
ГА
Статус: 
Действующий
Сайт: 
E-mail аэродрома: 
Страна: 
Россия
Регион: 
Ханты-Мансийский автономный округ - Югра
Город: 
Дополнительная информация: 
Оператор: ?

Найти трансфер

С помощью этой формы Вы можете найти трансфер из аэропорта 76-я Ершовая в город, аэропорт или вокзал:

Карта места

Javascript is required to view this map.

Погода в аэропортах:

Авиационная погода в Трабзоне

Регион: 
Погода METAR: 
LTCG 281150Z 02005KT 340V060 9000 -SHRA BKN028 20/15 Q1018 NOSIG RMK RWY29 34004KT 300V010
Время наблюдения
2021-09-28T11:50:00Z
Температура C
20.0
Точка росы
15.0
Направление ветра
20
Скорость ветра (узлы)
5
Метео видимость
5.59
Явления погоды
-SHRA
Условия полета
MVFR

Авиационная погода в Караганде

Регион: 
Погода METAR: 
UAKK 280940Z 26009G14MPS 9999 -SHRA SCT016CB 11/10 Q1009 R23/2///60 NOSIG RMK QFE711/0948
Время наблюдения
2021-09-28T09:40:00Z
Температура C
11.0
Точка росы
10.0
Направление ветра
260
Скорость ветра (узлы)
17
Метео видимость
6.21
Явления погоды
-SHRA
Условия полета
VFR
Аэропорт подробнее: 

Авиационная погода в Кокшетау

Регион: 
Погода METAR: 
UACK 281000Z 09011MPS 7000 -RA OVC007 03/02 Q1010 R02/250250 NOSIG RMK QFE734/0979
Время наблюдения
2021-09-28T10:00:00Z
Температура C
3.0
Точка росы
2.0
Направление ветра
90
Скорость ветра (узлы)
21
Метео видимость
4.35
Явления погоды
-RA
Условия полета
IFR
Аэропорт подробнее: 

Авиационная погода в Волгограде

Регион: 
Погода METAR: 
URWW 281200Z 07005MPS 9999 -SHRA BKN037CB 12/08 Q1020 R06/010070 TEMPO 1200 TSRAGR BKN004 SCT020CB
Время наблюдения
2021-09-28T12:00:00Z
Температура C
12.0
Точка росы
8.0
Направление ветра
70
Скорость ветра (узлы)
10
Метео видимость
6.21
Явления погоды
-SHRA
Условия полета
VFR
Аэропорт подробнее: